Time;durP1;ratioP1;P1;durP2;ratioP2;P2;SDS_P1;SDS_P2;PMS_P1;PMS_P2;Temp;Humidity;BMP_temperature;BMP_pressure;BME280_temperature;BME280_humidity;BME280_pressure;Samples;Min_cycle;Max_cycle;Signal;HPM_P1;HPM_P2
2022/06/11 00:02:35;;;;;;;15.27;8.18;;;;;;;;;;8297862;28;20056;-88
2022/06/11 00:06:43;;;;;;;11.05;7.32;;;;;;;;;;8297829;28;20050;-86
2022/06/11 00:10:47;;;;;;;12.70;8.20;;;;;;;;;;8297974;28;20060;-86
2022/06/11 00:14:50;;;;;;;11.68;8.80;;;;;;;;;;8283880;28;20053;-85
2022/06/11 00:18:57;;;;;;;10.32;7.45;;;;;;;;;;8302743;28;20056;-85
2022/06/11 00:23:00;;;;;;;13.50;8.05;;;;;;;;;;8303273;28;20057;-85
2022/06/11 00:27:04;;;;;;;15.43;9.88;;;;;;;;;;8300048;28;20212;-85
2022/06/11 00:31:10;;;;;;;18.17;9.75;;;;;;;;;;8308430;28;20050;-86
2022/06/11 00:35:15;;;;;;;14.30;9.32;;;;;;;;;;8308184;28;20042;-85
2022/06/11 00:39:21;;;;;;;22.60;11.57;;;;;;;;;;8294978;28;20072;-86
2022/06/11 00:43:27;;;;;;;31.08;11.80;;;;;;;;;;8294583;28;20083;-85
2022/06/11 00:47:32;;;;;;;42.65;12.95;;;;;;;;;;8308044;28;20498;-86
2022/06/11 00:51:44;;;;;;;26.25;13.63;;;;;;;;;;8308266;28;20049;-85
2022/06/11 00:55:52;;;;;;;30.83;13.65;;;;;;;;;;8308386;28;20049;-84
2022/06/11 01:00:09;;;;;;;23.58;12.38;;;;;;;;;;8307823;28;20418;-85
2022/06/11 01:04:49;;;;;;;29.42;14.48;;;;;;;;;;8293778;28;20465;-85
2022/06/11 01:09:05;;;;;;;23.17;13.38;;;;;;;;;;8307396;28;20461;-85
2022/06/11 01:13:32;;;;;;;33.58;13.50;;;;;;;;;;8307628;28;20065;-85
2022/06/11 01:17:45;;;;;;;31.27;10.95;;;;;;;;;;8307429;28;20566;-85
2022/06/11 01:22:01;;;;;;;23.97;13.33;;;;;;;;;;8307929;28;20046;-85
2022/06/11 01:26:34;;;;;;;17.27;11.45;;;;;;;;;;8304956;28;20503;-86
2022/06/11 01:30:44;;;;;;;18.55;11.40;;;;;;;;;;8296698;28;20045;-84
2022/06/11 01:34:57;;;;;;;23.02;12.10;;;;;;;;;;8302159;28;20033;-86
2022/06/11 01:39:13;;;;;;;16.65;11.73;;;;;;;;;;8302194;28;20046;-84
2022/06/11 01:43:25;;;;;;;19.92;11.63;;;;;;;;;;8301907;28;20037;-84
2022/06/11 01:47:30;;;;;;;24.95;12.52;;;;;;;;;;8288114;28;20494;-85
2022/06/11 01:56:00;;;;;;;25.45;12.48;;;;;;;;;;8366661;28;20128;-91
2022/06/11 02:00:10;;;;;;;32.38;12.85;;;;;;;;;;8367922;28;20106;-92
2022/06/11 02:04:24;;;;;;;26.52;13.65;;;;;;;;;;8367720;28;20049;-92
2022/06/11 02:08:33;;;;;;;21.55;12.95;;;;;;;;;;8367795;28;20518;-92
2022/06/11 02:12:48;;;;;;;25.70;13.52;;;;;;;;;;8367289;28;20073;-92
2022/06/11 02:16:55;;;;;;;22.63;13.15;;;;;;;;;;8367216;28;20045;-92
2022/06/11 02:21:04;;;;;;;26.38;14.02;;;;;;;;;;8366150;28;20049;-92
2022/06/11 02:25:11;;;;;;;28.15;14.05;;;;;;;;;;8362885;28;20041;-92
2022/06/11 02:29:17;;;;;;;25.92;13.50;;;;;;;;;;8345429;28;20543;-92
2022/06/11 02:33:22;;;;;;;19.35;13.38;;;;;;;;;;8342255;28;20465;-92
2022/06/11 02:37:34;;;;;;;20.98;13.40;;;;;;;;;;8334682;28;20068;-91
2022/06/11 02:41:37;;;;;;;22.63;14.60;;;;;;;;;;8343846;28;20045;-91
2022/06/11 02:45:39;;;;;;;21.77;13.27;;;;;;;;;;8345152;28;20057;-91
2022/06/11 02:49:42;;;;;;;22.55;14.15;;;;;;;;;;8350755;28;20450;-90
2022/06/11 02:53:46;;;;;;;18.63;12.70;;;;;;;;;;8358725;28;20053;-92
2022/06/11 02:57:50;;;;;;;22.48;14.30;;;;;;;;;;8359063;28;20048;-90
2022/06/11 03:01:53;;;;;;;19.27;13.65;;;;;;;;;;8364495;28;20099;-92
2022/06/11 03:05:56;;;;;;;25.45;14.95;;;;;;;;;;8364540;28;20045;-92
2022/06/11 03:10:00;;;;;;;26.05;14.85;;;;;;;;;;8358954;28;20036;-92
2022/06/11 03:14:02;;;;;;;27.73;14.13;;;;;;;;;;8362170;28;20044;-92
2022/06/11 03:18:05;;;;;;;28.10;15.10;;;;;;;;;;8364070;28;20480;-93
2022/06/11 03:22:08;;;;;;;31.30;15.07;;;;;;;;;;8355654;28;20049;-92
2022/06/11 03:26:12;;;;;;;24.63;14.55;;;;;;;;;;8361832;28;20044;-92
2022/06/11 03:30:17;;;;;;;19.90;14.35;;;;;;;;;;8362049;28;20033;-90
2022/06/11 03:34:20;;;;;;;21.48;13.95;;;;;;;;;;8358958;28;20429;-91
2022/06/11 03:38:23;;;;;;;26.17;15.55;;;;;;;;;;8363062;28;20045;-91
2022/06/11 03:42:26;;;;;;;21.33;15.13;;;;;;;;;;8360908;28;20045;-90
2022/06/11 03:46:29;;;;;;;23.80;14.80;;;;;;;;;;8357606;28;20400;-90
2022/06/11 03:50:35;;;;;;;22.95;15.32;;;;;;;;;;8353154;28;20091;-91
2022/06/11 03:54:38;;;;;;;25.30;15.88;;;;;;;;;;8338435;28;20057;-91
2022/06/11 03:58:44;;;;;;;23.50;16.13;;;;;;;;;;8330728;28;20041;-91
2022/06/11 04:02:47;;;;;;;23.35;15.80;;;;;;;;;;8337476;28;20051;-92
2022/06/11 04:06:53;;;;;;;25.77;16.17;;;;;;;;;;8353564;28;20088;-92
2022/06/11 04:10:57;;;;;;;20.05;15.13;;;;;;;;;;8346494;28;20049;-91
2022/06/11 04:15:01;;;;;;;23.08;14.23;;;;;;;;;;8334458;28;20148;-91
2022/06/11 04:19:08;;;;;;;20.50;14.45;;;;;;;;;;8349426;28;20051;-91
2022/06/11 04:23:11;;;;;;;21.48;14.25;;;;;;;;;;8338576;28;20048;-91
2022/06/11 04:27:17;;;;;;;21.58;14.73;;;;;;;;;;8330678;28;20057;-91
2022/06/11 04:31:23;;;;;;;22.20;15.95;;;;;;;;;;8351352;28;20056;-92
2022/06/11 04:35:26;;;;;;;29.08;18.95;;;;;;;;;;8332222;28;20095;-92
2022/06/11 04:39:32;;;;;;;27.05;19.38;;;;;;;;;;8357084;28;20556;-93
2022/06/11 04:43:36;;;;;;;23.90;18.42;;;;;;;;;;8352285;28;20124;-93
2022/06/11 04:47:41;;;;;;;25.08;18.00;;;;;;;;;;8355658;28;20051;-91
2022/06/11 04:51:49;;;;;;;23.20;17.85;;;;;;;;;;8342524;28;20040;-91
2022/06/11 04:55:54;;;;;;;19.10;14.98;;;;;;;;;;8335855;28;20184;-92
2022/06/11 04:59:59;;;;;;;20.13;17.05;;;;;;;;;;8325527;28;20056;-91
2022/06/11 05:04:03;;;;;;;23.70;17.48;;;;;;;;;;8358545;28;20045;-92
2022/06/11 05:08:06;;;;;;;17.70;13.55;;;;;;;;;;8362865;28;20060;-93
2022/06/11 05:12:10;;;;;;;15.70;12.88;;;;;;;;;;8349904;28;20357;-92
2022/06/11 05:16:17;;;;;;;18.50;12.48;;;;;;;;;;8349858;28;20107;-92
2022/06/11 05:20:22;;;;;;;17.58;12.27;;;;;;;;;;8350024;28;20131;-92
2022/06/11 05:24:25;;;;;;;19.08;12.50;;;;;;;;;;8334678;28;20044;-92
2022/06/11 05:28:31;;;;;;;16.52;12.30;;;;;;;;;;8348195;28;20487;-92
2022/06/11 05:32:37;;;;;;;14.35;12.70;;;;;;;;;;8361312;28;20056;-92
2022/06/11 05:36:41;;;;;;;15.48;10.77;;;;;;;;;;8356221;28;20091;-91
2022/06/11 05:40:47;;;;;;;16.08;12.07;;;;;;;;;;8350699;28;20037;-91
2022/06/11 05:44:50;;;;;;;14.25;11.02;;;;;;;;;;8359050;28;20048;-90
2022/06/11 05:48:58;;;;;;;12.88;9.90;;;;;;;;;;8353952;28;20080;-91
2022/06/11 05:53:03;;;;;;;13.27;10.50;;;;;;;;;;8365491;28;20587;-90
2022/06/11 05:57:10;;;;;;;14.75;10.05;;;;;;;;;;8351895;28;20128;-93
2022/06/11 06:01:17;;;;;;;10.07;8.23;;;;;;;;;;8334598;28;20037;-92
2022/06/11 06:05:24;;;;;;;9.55;7.07;;;;;;;;;;8334774;28;20049;-90
2022/06/11 06:09:28;;;;;;;12.80;7.72;;;;;;;;;;8350840;28;20471;-90
2022/06/11 06:13:50;;;;;;;11.00;8.27;;;;;;;;;;8368150;28;20443;-89
2022/06/11 06:18:01;;;;;;;8.23;6.95;;;;;;;;;;8345806;28;20060;-89
2022/06/11 06:22:23;;;;;;;9.82;7.82;;;;;;;;;;8346082;28;20140;-89
2022/06/11 06:26:39;;;;;;;8.93;6.38;;;;;;;;;;8360520;28;20044;-90
2022/06/11 06:30:49;;;;;;;7.97;6.22;;;;;;;;;;8359263;28;20052;-94
2022/06/11 06:34:52;;;;;;;9.18;5.93;;;;;;;;;;8349160;28;20052;-93
2022/06/11 06:38:55;;;;;;;8.90;5.70;;;;;;;;;;8344626;28;20116;-92
2022/06/11 06:42:59;;;;;;;6.82;5.05;;;;;;;;;;8343074;28;20111;-91
2022/06/11 06:47:02;;;;;;;7.13;5.47;;;;;;;;;;8332980;28;20046;-92
2022/06/11 06:51:06;;;;;;;12.57;5.53;;;;;;;;;;8354786;28;20052;-89
2022/06/11 06:55:13;;;;;;;6.95;4.68;;;;;;;;;;8338872;28;20065;-89
2022/06/11 06:59:17;;;;;;;7.57;4.93;;;;;;;;;;8338004;28;20068;-89
2022/06/11 07:03:20;;;;;;;7.13;5.18;;;;;;;;;;8340037;28;20409;-89
2022/06/11 07:07:23;;;;;;;7.20;4.63;;;;;;;;;;8331620;28;20049;-88
2022/06/11 07:11:26;;;;;;;8.65;4.20;;;;;;;;;;8332297;28;20037;-91
2022/06/11 07:15:31;;;;;;;7.70;4.30;;;;;;;;;;8331981;28;20076;-87
2022/06/11 07:19:39;;;;;;;7.35;5.10;;;;;;;;;;8331730;28;20079;-91
2022/06/11 07:23:46;;;;;;;7.30;3.92;;;;;;;;;;8341942;28;20136;-89
2022/06/11 07:27:54;;;;;;;8.63;3.70;;;;;;;;;;8333526;28;20089;-89
2022/06/11 07:32:02;;;;;;;6.10;3.70;;;;;;;;;;8345548;28;20047;-92
2022/06/11 07:36:06;;;;;;;6.88;3.38;;;;;;;;;;8331602;28;20053;-91
2022/06/11 07:40:10;;;;;;;7.53;3.20;;;;;;;;;;8345373;28;20049;-87
2022/06/11 07:44:13;;;;;;;5.45;3.53;;;;;;;;;;8331152;28;20079;-92
2022/06/11 07:48:18;;;;;;;7.95;3.75;;;;;;;;;;8345083;28;20092;-91
2022/06/11 07:52:22;;;;;;;5.05;3.25;;;;;;;;;;8330631;28;20050;-88
2022/06/11 07:56:25;;;;;;;6.35;3.08;;;;;;;;;;8330907;28;20042;-90
2022/06/11 08:00:31;;;;;;;9.10;3.63;;;;;;;;;;8330908;28;20049;-88
2022/06/11 08:04:35;;;;;;;13.57;4.40;;;;;;;;;;8330690;28;20121;-90
2022/06/11 08:08:39;;;;;;;6.90;3.80;;;;;;;;;;8330648;28;20588;-89
2022/06/11 08:12:42;;;;;;;4.80;2.90;;;;;;;;;;8330320;28;20489;-93
2022/06/11 08:16:45;;;;;;;5.43;3.08;;;;;;;;;;8330423;28;20045;-90
2022/06/11 08:20:51;;;;;;;4.63;2.67;;;;;;;;;;8344486;28;20072;-92
2022/06/11 08:24:54;;;;;;;4.45;2.97;;;;;;;;;;8347664;28;20495;-89
2022/06/11 08:28:57;;;;;;;3.83;2.67;;;;;;;;;;8349173;28;20044;-90
2022/06/11 08:33:01;;;;;;;3.95;2.58;;;;;;;;;;8339841;28;20493;-86
2022/06/11 08:37:05;;;;;;;6.50;2.97;;;;;;;;;;8352643;28;20496;-87
2022/06/11 08:41:16;;;;;;;4.47;2.67;;;;;;;;;;8364095;28;20116;-87
2022/06/11 08:45:21;;;;;;;2.87;2.27;;;;;;;;;;8351807;28;20048;-87
2022/06/11 08:49:35;;;;;;;4.20;2.40;;;;;;;;;;8341324;28;20408;-87
2022/06/11 08:53:40;;;;;;;2.97;2.25;;;;;;;;;;8343800;28;20053;-86
2022/06/11 08:57:54;;;;;;;2.75;2.40;;;;;;;;;;8350328;28;20045;-90
2022/06/11 09:02:09;;;;;;;4.35;2.47;;;;;;;;;;8344337;28;20053;-91
2022/06/11 09:06:38;;;;;;;3.35;1.92;;;;;;;;;;8340948;28;20048;-91
2022/06/11 09:11:01;;;;;;;3.15;1.70;;;;;;;;;;8342935;28;20041;-96
2022/06/11 09:15:18;;;;;;;4.60;2.83;;;;;;;;;;8338261;28;20033;-86
2022/06/11 09:19:36;;;;;;;2.85;2.30;;;;;;;;;;8351326;28;20049;-86
2022/06/11 09:23:56;;;;;;;3.17;2.40;;;;;;;;;;8335750;28;20045;-89
2022/06/11 09:28:10;;;;;;;3.47;2.38;;;;;;;;;;8363046;28;20153;-89
2022/06/11 09:32:16;;;;;;;3.40;2.10;;;;;;;;;;8363584;28;20033;-88
2022/06/11 09:36:27;;;;;;;4.40;2.30;;;;;;;;;;8359995;28;20167;-93
2022/06/11 09:40:37;;;;;;;3.87;2.30;;;;;;;;;;8342841;28;20041;-90
2022/06/11 09:44:48;;;;;;;6.63;2.40;;;;;;;;;;8334780;28;20299;-91
2022/06/11 09:49:13;;;;;;;5.90;2.05;;;;;;;;;;8335539;28;20488;-89
2022/06/11 09:53:43;;;;;;;2.85;1.98;;;;;;;;;;8355943;28;20053;-89
2022/06/11 09:57:53;;;;;;;2.75;2.03;;;;;;;;;;8347342;28;20373;-90
2022/06/11 10:02:03;;;;;;;3.60;2.20;;;;;;;;;;8362200;28;20066;-91
2022/06/11 10:06:07;;;;;;;;;;;;;;;;;;8349570;28;20053;-92
2022/06/11 10:10:14;;;;;;;3.70;2.22;;;;;;;;;;8361728;28;19924;-90
2022/06/11 10:14:32;;;;;;;4.57;2.10;;;;;;;;;;8362413;28;20061;-94
2022/06/11 10:18:38;;;;;;;6.43;2.13;;;;;;;;;;8361502;28;20097;-89
2022/06/11 10:22:46;;;;;;;3.00;1.90;;;;;;;;;;8360836;28;20048;-90
2022/06/11 10:26:54;;;;;;;2.25;1.90;;;;;;;;;;8358158;28;20098;-90
2022/06/11 10:31:04;;;;;;;5.30;2.13;;;;;;;;;;8359317;28;20048;-90
2022/06/11 10:35:17;;;;;;;2.25;1.88;;;;;;;;;;8359294;28;20540;-89
2022/06/11 10:39:26;;;;;;;2.70;1.92;;;;;;;;;;8360197;28;20064;-91
2022/06/11 10:43:35;;;;;;;3.72;2.10;;;;;;;;;;8359568;28;20103;-90
2022/06/11 10:47:40;;;;;;;4.13;1.95;;;;;;;;;;8331337;28;20110;-90
2022/06/11 10:51:49;;;;;;;4.13;2.03;;;;;;;;;;8332572;28;20041;-91
2022/06/11 10:55:56;;;;;;;4.63;1.92;;;;;;;;;;8339692;28;20063;-87
2022/06/11 11:00:05;;;;;;;2.08;1.50;;;;;;;;;;8338972;28;20519;-89
2022/06/11 11:04:28;;;;;;;3.75;1.67;;;;;;;;;;8347180;28;20428;-88
2022/06/11 11:08:35;;;;;;;3.28;1.67;;;;;;;;;;8332802;28;20060;-91
2022/06/11 11:12:39;;;;;;;3.25;1.50;;;;;;;;;;8332465;28;20045;-87
2022/06/11 11:16:47;;;;;;;4.95;1.85;;;;;;;;;;8332135;28;20124;-89
2022/06/11 11:20:53;;;;;;;4.70;2.08;;;;;;;;;;8334055;28;20128;-88
2022/06/11 11:24:58;;;;;;;3.65;1.80;;;;;;;;;;8342899;28;20121;-88
2022/06/11 11:29:08;;;;;;;4.22;1.60;;;;;;;;;;8344961;28;20477;-90
2022/06/11 11:33:23;;;;;;;4.10;2.08;;;;;;;;;;8331814;28;20084;-90
2022/06/11 11:37:33;;;;;;;3.00;1.40;;;;;;;;;;8331196;28;20037;-86
2022/06/11 11:41:38;;;;;;;2.78;1.60;;;;;;;;;;8331268;28;20099;-90
2022/06/11 11:45:44;;;;;;;2.00;1.52;;;;;;;;;;8331437;28;20053;-89
2022/06/11 11:49:54;;;;;;;2.85;1.60;;;;;;;;;;8331356;28;20046;-91
2022/06/11 11:54:01;;;;;;;2.22;1.70;;;;;;;;;;8331256;28;20053;-92
2022/06/11 11:58:14;;;;;;;2.97;1.90;;;;;;;;;;8346206;28;20045;-91
2022/06/11 12:02:22;;;;;;;6.25;1.67;;;;;;;;;;8344207;28;20037;-91
2022/06/11 12:06:30;;;;;;;3.35;1.70;;;;;;;;;;8331529;28;20432;-91
2022/06/11 12:10:38;;;;;;;2.53;1.52;;;;;;;;;;8343387;28;20052;-94
2022/06/11 12:14:48;;;;;;;6.90;1.80;;;;;;;;;;8347099;28;20068;-88
2022/06/11 12:18:54;;;;;;;4.13;1.90;;;;;;;;;;8340562;28;20049;-89
2022/06/11 12:23:04;;;;;;;3.83;2.20;;;;;;;;;;8335356;28;20406;-90
2022/06/11 12:27:14;;;;;;;2.63;1.50;;;;;;;;;;8345208;28;20128;-89
2022/06/11 12:31:19;;;;;;;2.53;1.35;;;;;;;;;;8331766;28;20042;-91
2022/06/11 12:35:27;;;;;;;5.32;1.73;;;;;;;;;;8342986;28;20144;-95
2022/06/11 12:39:39;;;;;;;4.78;1.70;;;;;;;;;;8330606;28;20125;-88
2022/06/11 12:43:50;;;;;;;3.33;1.45;;;;;;;;;;8330877;28;20042;-93
2022/06/11 12:48:22;;;;;;;10.02;2.70;;;;;;;;;;8330664;28;20049;-93
2022/06/11 12:52:35;;;;;;;1.23;1.13;;;;;;;;;;8330838;28;20060;-85
2022/06/11 12:57:01;;;;;;;5.50;1.98;;;;;;;;;;8344147;28;20065;-93
2022/06/11 13:01:08;;;;;;;3.00;1.35;;;;;;;;;;8330940;28;20416;-87
2022/06/11 13:05:53;;;;;;;3.30;1.33;;;;;;;;;;8330507;28;20041;-94
2022/06/11 13:10:14;;;;;;;73.63;16.00;;;;;;;;;;8326484;28;20073;-93
2022/06/11 13:14:37;;;;;;;6.90;2.20;;;;;;;;;;8344156;28;20048;-91
2022/06/11 13:18:57;;;;;;;11.70;2.70;;;;;;;;;;8331562;28;20485;-93
2022/06/11 13:23:04;;;;;;;3.47;1.50;;;;;;;;;;8329987;28;20124;-87
2022/06/11 13:27:22;;;;;;;3.15;2.13;;;;;;;;;;8332824;28;20408;-85
2022/06/11 13:31:31;;;;;;;6.30;1.65;;;;;;;;;;8350402;28;20128;-87
2022/06/11 13:35:44;;;;;;;5.05;2.30;;;;;;;;;;8335922;28;20463;-89
2022/06/11 13:40:02;;;;;;;4.85;2.00;;;;;;;;;;8335673;28;20049;-89
2022/06/11 13:44:20;;;;;;;3.42;1.70;;;;;;;;;;8337832;28;20041;-90
2022/06/11 13:48:34;;;;;;;7.70;2.38;;;;;;;;;;8335970;28;20049;-89
2022/06/11 13:57:33;;;;;;;3.00;1.58;;;;;;;;;;8311971;28;20080;-90
2022/06/11 14:02:17;;;;;;;457.25;61.55;;;;;;;;;;8335508;28;20095;-88
2022/06/11 14:06:41;;;;;;;13.63;2.40;;;;;;;;;;8353954;28;20041;-94
2022/06/11 14:10:48;;;;;;;3.50;1.95;;;;;;;;;;8362566;28;20045;-92
2022/06/11 14:15:39;;;;;;;6.68;3.20;;;;;;;;;;8370462;28;20066;-93
2022/06/11 14:19:49;;;;;;;4.85;2.40;;;;;;;;;;8361546;28;20045;-83
2022/06/11 14:23:52;;;;;;;6.05;1.90;;;;;;;;;;8350552;28;20041;-89
2022/06/11 14:28:29;;;;;;;4.57;2.95;;;;;;;;;;8373646;28;20042;-85
2022/06/11 14:32:42;;;;;;;3.13;1.83;;;;;;;;;;8352959;28;20064;-85
2022/06/11 14:37:09;;;;;;;9.48;1.73;;;;;;;;;;8343169;28;20075;-86
2022/06/11 14:41:46;;;;;;;9.15;6.38;;;;;;;;;;8365841;28;20052;-85
2022/06/11 14:46:04;;;;;;;4.23;2.17;;;;;;;;;;8366693;28;20072;-83
2022/06/11 14:55:51;;;;;;;4.07;2.10;;;;;;;;;;8316383;28;20115;-92
2022/06/11 15:00:23;;;;;;;3.10;1.88;;;;;;;;;;8311670;28;20053;-85
2022/06/11 15:04:54;;;;;;;2.83;2.03;;;;;;;;;;8335112;28;20520;-94
2022/06/11 15:09:57;;;;;;;2.75;2.00;;;;;;;;;;8336027;28;20221;-88
2022/06/11 15:19:19;;;;;;;2.30;1.80;;;;;;;;;;8369054;28;20069;-89
2022/06/11 15:23:36;;;;;;;2.92;2.20;;;;;;;;;;8357293;28;20122;-91
2022/06/11 15:27:51;;;;;;;3.47;1.95;;;;;;;;;;8379742;28;20067;-80
2022/06/11 15:32:02;;;;;;;2.83;2.13;;;;;;;;;;8370329;28;20059;-79
2022/06/11 15:36:11;;;;;;;5.03;2.30;;;;;;;;;;8373829;28;20080;-80
2022/06/11 15:40:23;;;;;;;3.05;2.13;;;;;;;;;;8374887;28;20346;-85
2022/06/11 15:44:32;;;;;;;2.33;2.00;;;;;;;;;;8373323;28;20176;-82
2022/06/11 15:48:40;;;;;;;3.13;2.17;;;;;;;;;;8368813;28;20199;-80
2022/06/11 15:52:58;;;;;;;3.30;1.92;;;;;;;;;;8384425;28;20126;-84
2022/06/11 15:57:21;;;;;;;4.25;2.00;;;;;;;;;;8358645;28;20046;-90
2022/06/11 16:01:26;;;;;;;3.47;2.20;;;;;;;;;;8379197;28;20041;-80
2022/06/11 16:05:53;;;;;;;5.85;2.33;;;;;;;;;;8383149;28;20044;-81
2022/06/11 16:10:01;;;;;;;4.40;2.30;;;;;;;;;;8348086;28;20125;-81
2022/06/11 16:14:10;;;;;;;4.10;2.20;;;;;;;;;;8338965;28;20096;-81
2022/06/11 16:18:32;;;;;;;3.20;2.13;;;;;;;;;;8367771;28;20049;-82
2022/06/11 16:22:47;;;;;;;3.30;2.20;;;;;;;;;;8377656;28;20049;-83
2022/06/11 16:26:53;;;;;;;2.63;2.10;;;;;;;;;;8377364;28;20049;-88
2022/06/11 16:31:00;;;;;;;3.50;2.25;;;;;;;;;;8381592;28;20045;-95
2022/06/11 16:35:10;;;;;;;2.47;1.90;;;;;;;;;;8381289;28;20056;-88
2022/06/11 16:39:33;;;;;;;3.58;2.20;;;;;;;;;;8347582;28;20056;-85
2022/06/11 16:43:50;;;;;;;3.53;2.38;;;;;;;;;;8376018;28;20072;-84
2022/06/11 16:48:00;;;;;;;5.47;1.92;;;;;;;;;;8373164;28;20126;-83
2022/06/11 16:56:44;;;;;;;4.85;2.58;;;;;;;;;;8342082;28;20060;-84
2022/06/11 17:05:17;;;;;;;4.38;2.45;;;;;;;;;;8356700;28;21014;-87
2022/06/11 17:09:32;;;;;;;3.58;2.70;;;;;;;;;;8371049;28;20049;-84
2022/06/11 17:13:49;;;;;;;4.40;2.20;;;;;;;;;;8330698;28;20061;-85
2022/06/11 17:17:56;;;;;;;12.32;2.80;;;;;;;;;;8366929;28;20041;-85
2022/06/11 17:22:09;;;;;;;5.13;2.88;;;;;;;;;;8370850;28;20045;-88
2022/06/11 17:26:19;;;;;;;4.13;2.30;;;;;;;;;;8371781;28;20171;-82
2022/06/11 17:30:28;;;;;;;5.50;3.08;;;;;;;;;;8370090;28;21414;-92
2022/06/11 17:34:34;;;;;;;8.40;2.70;;;;;;;;;;8360628;28;20052;-92
2022/06/11 17:38:41;;;;;;;4.03;2.70;;;;;;;;;;8353510;28;20186;-89
2022/06/11 17:47:06;;;;;;;3.77;2.40;;;;;;;;;;8350476;28;20057;-85
2022/06/11 17:51:13;;;;;;;7.90;3.20;;;;;;;;;;8352704;28;20048;-87
2022/06/11 17:55:17;;;;;;;8.40;3.58;;;;;;;;;;8368361;28;20053;-84
2022/06/11 17:59:20;;;;;;;7.10;3.33;;;;;;;;;;8356888;28;20056;-90
2022/06/11 18:03:23;;;;;;;6.15;2.80;;;;;;;;;;8361971;28;20049;-90
2022/06/11 18:07:27;;;;;;;9.35;3.40;;;;;;;;;;8362031;28;20447;-84
2022/06/11 18:11:31;;;;;;;6.88;3.78;;;;;;;;;;8359214;28;20053;-87
2022/06/11 18:15:36;;;;;;;5.75;3.00;;;;;;;;;;8363837;28;20051;-84
2022/06/11 18:19:42;;;;;;;7.35;3.40;;;;;;;;;;8364244;28;20523;-85
2022/06/11 18:28:08;;;;;;;7.93;4.03;;;;;;;;;;8347895;28;20412;-86
2022/06/11 18:32:11;;;;;;;7.22;3.72;;;;;;;;;;8346553;28;20095;-84
2022/06/11 18:36:14;;;;;;;6.25;3.80;;;;;;;;;;8341889;28;20127;-87
2022/06/11 18:40:21;;;;;;;7.07;4.60;;;;;;;;;;8347209;28;20045;-90
2022/06/11 18:44:24;;;;;;;6.22;4.30;;;;;;;;;;8363911;28;20044;-90
2022/06/11 18:48:26;;;;;;;7.60;5.07;;;;;;;;;;8355801;28;20041;-87
2022/06/11 18:52:30;;;;;;;8.38;5.10;;;;;;;;;;8362348;28;20107;-92
2022/06/11 18:56:35;;;;;;;6.93;4.50;;;;;;;;;;8360329;28;20041;-87
2022/06/11 19:00:39;;;;;;;9.60;5.05;;;;;;;;;;8356778;28;20103;-85
2022/06/11 19:04:42;;;;;;;8.48;5.13;;;;;;;;;;8369439;28;20060;-88
2022/06/11 19:08:46;;;;;;;7.47;5.00;;;;;;;;;;8359754;28;20083;-90
2022/06/11 19:12:52;;;;;;;7.72;4.57;;;;;;;;;;8361562;28;20173;-93
2022/06/11 19:16:55;;;;;;;7.05;4.68;;;;;;;;;;8358298;28;20041;-87
2022/06/11 19:21:00;;;;;;;7.13;4.78;;;;;;;;;;8359533;28;20060;-93
2022/06/11 19:25:03;;;;;;;7.05;4.90;;;;;;;;;;8354394;28;20095;-86
2022/06/11 19:29:08;;;;;;;8.43;5.22;;;;;;;;;;8368652;28;20045;-88
2022/06/11 19:33:13;;;;;;;7.07;5.22;;;;;;;;;;8358994;28;20048;-86
2022/06/11 19:37:16;;;;;;;7.90;5.00;;;;;;;;;;8354253;28;20053;-87
2022/06/11 19:41:21;;;;;;;6.90;4.85;;;;;;;;;;8358191;28;20079;-90
2022/06/11 19:45:50;;;;;;;6.75;4.80;;;;;;;;;;8363728;28;20052;-90
2022/06/11 19:49:57;;;;;;;6.97;4.60;;;;;;;;;;8350920;28;20063;-90
2022/06/11 19:54:01;;;;;;;8.88;5.15;;;;;;;;;;8353459;28;20537;-87
2022/06/11 19:58:05;;;;;;;7.43;5.40;;;;;;;;;;8356053;28;20435;-89
2022/06/11 20:02:20;;;;;;;7.40;4.78;;;;;;;;;;8359788;28;20060;-87
2022/06/11 20:06:28;;;;;;;7.00;5.22;;;;;;;;;;8353169;28;20045;-90
2022/06/11 20:10:35;;;;;;;6.72;5.43;;;;;;;;;;8355499;28;20045;-87
2022/06/11 20:14:39;;;;;;;7.40;5.00;;;;;;;;;;8361066;28;20041;-92
2022/06/11 20:18:44;;;;;;;7.68;5.20;;;;;;;;;;8353641;28;20045;-91
2022/06/11 20:22:47;;;;;;;7.28;5.38;;;;;;;;;;8348823;28;20794;-91
2022/06/11 20:26:52;;;;;;;10.40;5.05;;;;;;;;;;8368296;28;20041;-89
2022/06/11 20:30:55;;;;;;;7.97;5.20;;;;;;;;;;8364217;28;20398;-92
2022/06/11 20:34:59;;;;;;;6.38;4.85;;;;;;;;;;8358243;28;20128;-90
2022/06/11 20:39:03;;;;;;;6.28;5.05;;;;;;;;;;8370919;28;20041;-93
2022/06/11 20:43:06;;;;;;;7.82;4.90;;;;;;;;;;8373071;28;20045;-95
2022/06/11 20:47:09;;;;;;;7.50;5.05;;;;;;;;;;8366357;28;20094;-92
2022/06/11 20:51:19;;;;;;;6.32;4.97;;;;;;;;;;8373685;28;20121;-92
2022/06/11 20:55:27;;;;;;;6.50;4.93;;;;;;;;;;8352280;28;20385;-95
2022/06/11 20:59:30;;;;;;;7.38;4.97;;;;;;;;;;8342885;28;20045;-89
2022/06/11 21:03:39;;;;;;;7.60;5.63;;;;;;;;;;8357156;28;20513;-94
2022/06/11 21:32:49;;;;;;;6.00;4.78;;;;;;;;;;7978099;29;20088;-87
2022/06/11 21:43:03;;;;;;;13.43;5.20;;;;;;;;;;7974560;29;20104;-92
2022/06/11 21:47:12;;;;;;;7.00;5.72;;;;;;;;;;7951184;29;20644;-84
2022/06/11 21:51:16;;;;;;;8.27;5.95;;;;;;;;;;7942501;29;20504;-84
2022/06/11 21:55:21;;;;;;;5.95;4.97;;;;;;;;;;7963816;29;20062;-84
2022/06/11 21:59:27;;;;;;;8.88;5.80;;;;;;;;;;8047944;29;20414;-85
2022/06/11 22:03:30;;;;;;;7.55;5.38;;;;;;;;;;8201425;28;20143;-86
2022/06/11 22:07:32;;;;;;;10.45;5.88;;;;;;;;;;8252062;28;20526;-84
2022/06/11 22:11:37;;;;;;;10.18;5.97;;;;;;;;;;8244072;28;20053;-94
2022/06/11 22:15:41;;;;;;;8.38;6.43;;;;;;;;;;8292233;28;20139;-88
2022/06/11 22:19:46;;;;;;;9.63;6.25;;;;;;;;;;8353742;28;20130;-94
2022/06/11 22:23:50;;;;;;;8.30;6.50;;;;;;;;;;8350066;28;20619;-95
2022/06/11 22:27:53;;;;;;;7.43;5.65;;;;;;;;;;8317107;28;20111;-95
2022/06/11 22:31:57;;;;;;;8.85;6.03;;;;;;;;;;8323059;28;20045;-95
2022/06/11 22:36:00;;;;;;;6.80;5.22;;;;;;;;;;8308977;28;20045;-87
2022/06/11 22:40:03;;;;;;;8.77;5.60;;;;;;;;;;8311558;28;20119;-94
2022/06/11 22:44:06;;;;;;;7.72;5.45;;;;;;;;;;8302917;28;20065;-94
2022/06/11 22:48:10;;;;;;;10.52;5.80;;;;;;;;;;8326476;28;20545;-93
2022/06/11 22:52:13;;;;;;;9.95;6.07;;;;;;;;;;8325174;28;20132;-93
2022/06/11 22:56:18;;;;;;;7.20;5.90;;;;;;;;;;8329625;28;20057;-95
2022/06/11 23:00:21;;;;;;;11.27;5.40;;;;;;;;;;8327201;28;20057;-92
2022/06/11 23:04:27;;;;;;;7.85;5.07;;;;;;;;;;8324630;28;20081;-93
2022/06/11 23:08:30;;;;;;;9.50;5.85;;;;;;;;;;8296754;28;20045;-90
2022/06/11 23:12:33;;;;;;;9.23;5.50;;;;;;;;;;8321744;28;20559;-90
2022/06/11 23:16:36;;;;;;;9.10;5.70;;;;;;;;;;8325010;28;20096;-94
2022/06/11 23:20:42;;;;;;;10.40;5.75;;;;;;;;;;8317554;28;20108;-91
2022/06/11 23:24:44;;;;;;;15.52;6.72;;;;;;;;;;8297460;28;20041;-91
2022/06/11 23:28:47;;;;;;;9.27;5.75;;;;;;;;;;8311550;28;20490;-89
2022/06/11 23:32:55;;;;;;;8.23;5.93;;;;;;;;;;8330748;28;20514;-91
2022/06/11 23:36:59;;;;;;;9.77;5.95;;;;;;;;;;8354107;28;20056;-88
2022/06/11 23:41:03;;;;;;;8.88;5.65;;;;;;;;;;8362728;28;20370;-90
2022/06/11 23:49:27;;;;;;;9.23;6.22;;;;;;;;;;8360865;28;20042;-87
2022/06/11 23:53:32;;;;;;;8.18;6.10;;;;;;;;;;8375707;28;20048;-93
2022/06/11 23:57:38;;;;;;;9.48;6.97;;;;;;;;;;8358927;28;20041;-90
